Terminal Aerodrome Forecast
Issued by NWS Atlanta, GA

Home | Current Version | Previous Version | Text Only | Print | Product List | Glossary On
Versions: 1 2 3 4 5 6 7 8 9 10 11 12 13 14 15 16 17 18 19 20 21 22 23 24 25 26 27 28 29 30 31 32 33 34 35 36 37 38 39
000
FTUS42 KFFC 280738 AAA
TAFATL
TAF AMD
KATL 280738Z 2808/2912 08007KT P6SM SCT025 SCT060
     FM281100 08008KT P6SM BKN010
     FM281400 09010KT P6SM BKN020
     FM281700 09010KT P6SM SCT035
     FM282200 10008KT P6SM SCT045 SCT250
     FM290800 10006KT P6SM SCT010 BKN025=

USA.gov is the U.S. government's official web portal to all federal, state and local government web resources and services.